Impacts TAF Board INFO
FOR SITUATIONAL AWARENESS. NOT TO BE USED FOR FLIGHT PLANNING PURPOSES.
IDs:

KSTL - St Louis/Lambert Int, MO, US

Issued at 0257 UTC 28 Jul 2017
Updated at 0431 UTC 28 Jul 2017
Potential Impact None Slight Moderate High
Time0351Z 28/05Z 28/06Z 28/07Z 28/08Z 28/09Z 28/10Z 28/11Z 28/12Z 28/13Z 28/14Z 28/15Z 28/16Z 28/17Z>>
Type OBS PRVL
  [TEMP]  
PRVL
  [TEMP]  
PRVL
  [TEMP]  
PRVL
  [TEMP]  
PRVL PRVL PRVL PRVL PRVL PRVL PRVL PRVL PRVL
VIS 10 >6 >6 >6 >6 >6 >6 >6 >6 >6 >6 >6 >6 >6
CIG 90 40
  [25]  
40
  [25]  
40
  [25]  
40
  [25]  
25 25 25 25 25 25 25 -- --
Cover BKN BKN
  [BKN]  
BKN
  [BKN]  
BKN
  [BKN]  
BKN
  [BKN]  
BKN BKN BKN BKN BKN BKN BKN SCT SCT
FltCat VFR VFR
  [MVFR]  
VFR
  [MVFR]  
VFR
  [MVFR]  
VFR
  [MVFR]  
MVFR MVFR MVFR MVFR MVFR MVFR MVFR VFR VFR
WX -- --
  [--]  
--
  [--]  
--
  [--]  
--
  [--]  
-- -- -- -- -- -- -- -- --
WDir VRB 350
[350]
350
[350]
350
[350]
350
[350]
10 10 10 10 10 10 10 10 10
WSpd 0 5
  [5]  
5
  [5]  
5
  [5]  
5
  [5]  
7 7 7 7 7 7 7 9 9
WGst -- --
  [--]  
--
  [--]  
--
  [--]  
--
  [--]  
-- -- -- -- -- -- -- -- --

Raw TAF
KSTL 280257Z 2803/2906 35005KT P6SM SCT025 BKN040
  TEMPO 2805/2809 BKN025
  FM280900 01007KT P6SM BKN025
  FM281600 01009KT P6SM SCT040
  FM290100 03006KT P6SM FEW200


Raw METAR
KSTL 280351Z 00000KT 10SM BKN090 26/23 A2990 RMK AO2 SLP111 T02610228
KSTL 280251Z 36004KT 10SM FEW026 SCT095 26/22 A2989 RMK AO2 SLP109 T02610222 53003
KSTL 280151Z 36004KT 10SM FEW024 SCT055 BKN095 27/22 A2989 RMK AO2 SLP108 T02670222

METAR Board
Radar Display
Forecast Discussion

FOR SITUATIONAL AWARENESS. NOT TO BE USED FOR FLIGHT PLANNING PURPOSES.